Time;durP1;ratioP1;P1;durP2;ratioP2;P2;SDS_P1;SDS_P2;PMS_P1;PMS_P2;Temp;Humidity;BMP_temperature;BMP_pressure;BME280_temperature;BME280_humidity;BME280_pressure;Samples;Min_cycle;Max_cycle;Signal;HPM_P1;HPM_P2
2022/07/29 11:32:20;;;;;;;4.30;4.00;;;;;;;;;;6247673;22;20142;-81
2022/07/29 11:34:47;;;;;;;4.32;3.92;;;;;;;;;;6310023;22;20418;-84
2022/07/29 11:37:15;;;;;;;3.05;2.85;;;;;;;;;;6312076;22;20045;-85
2022/07/29 11:39:46;;;;;;;3.30;3.00;;;;;;;;;;6313131;22;19999;-86
2022/07/29 11:42:23;;;;;;;3.30;3.10;;;;;;;;;;6313899;22;20418;-89
2022/07/29 11:45:13;;;;;;;3.10;2.90;;;;;;;;;;6315006;22;20038;-87
2022/07/29 11:47:47;;;;;;;2.75;2.55;;;;;;;;;;6316686;22;20006;-88
2022/07/29 11:50:16;;;;;;;3.45;3.15;;;;;;;;;;6323495;22;20010;-88
2022/07/29 11:52:47;;;;;;;3.03;2.83;;;;;;;;;;6326385;22;20014;-88
2022/07/29 11:55:19;;;;;;;2.90;2.70;;;;;;;;;;6316910;22;20086;-84
2022/07/29 11:57:58;;;;;;;3.83;2.72;;;;;;;;;;6311594;22;20476;-84
2022/07/29 12:00:54;;;;;;;3.67;2.60;;;;;;;;;;6317856;22;19999;-78
2022/07/29 12:03:28;;;;;;;2.80;2.60;;;;;;;;;;6319981;22;20029;-79
2022/07/29 12:05:54;;;;;;;3.90;3.10;;;;;;;;;;6322774;22;19983;-78
2022/07/29 12:08:25;;;;;;;4.00;3.03;;;;;;;;;;6320957;22;20153;-78
2022/07/29 12:10:51;;;;;;;5.05;3.28;;;;;;;;;;6322009;22;20010;-84
2022/07/29 12:13:19;;;;;;;4.10;3.70;;;;;;;;;;6314370;22;20006;-79
2022/07/29 12:15:53;;;;;;;4.35;3.92;;;;;;;;;;6313625;22;19999;-85
2022/07/29 22:13:06;;;;;;;7.38;6.68;;;;;;;;;;6275085;22;20074;-93
2022/07/29 22:15:32;;;;;;;6.43;5.82;;;;;;;;;;6247321;23;20016;-87
2022/07/29 22:17:57;;;;;;;7.03;6.22;;;;;;;;;;6247800;23;20004;-92
2022/07/29 22:20:23;;;;;;;7.60;6.75;;;;;;;;;;6225527;23;20037;-87
2022/07/29 22:22:49;;;;;;;6.85;6.15;;;;;;;;;;6217636;23;20011;-93
2022/07/29 22:25:14;;;;;;;8.60;6.60;;;;;;;;;;6217489;23;20004;-92
2022/07/29 22:27:40;;;;;;;7.50;6.72;;;;;;;;;;6217937;23;20004;-94
2022/07/29 22:30:06;;;;;;;8.15;5.97;;;;;;;;;;6217604;23;20000;-90
2022/07/29 22:32:32;;;;;;;6.95;6.25;;;;;;;;;;6217761;23;20327;-95
2022/07/29 22:34:57;;;;;;;8.15;5.95;;;;;;;;;;6217532;23;20009;-95
2022/07/29 22:37:23;;;;;;;7.90;5.90;;;;;;;;;;6217312;23;20079;-95
2022/07/29 22:39:48;;;;;;;7.10;5.78;;;;;;;;;;6217527;23;20005;-94
2022/07/29 22:42:14;;;;;;;7.05;6.35;;;;;;;;;;6217429;23;20008;-95
2022/07/29 22:44:39;;;;;;;7.28;5.93;;;;;;;;;;6217842;23;20420;-94
2022/07/29 22:47:05;;;;;;;6.70;6.10;;;;;;;;;;6217830;23;19997;-90
2022/07/29 22:49:30;;;;;;;7.38;5.57;;;;;;;;;;6217733;23;20079;-90
2022/07/29 22:51:56;;;;;;;6.70;6.10;;;;;;;;;;6217964;23;20079;-89
2022/07/29 22:54:21;;;;;;;8.20;6.03;;;;;;;;;;6217612;23;20328;-94
2022/07/29 22:56:47;;;;;;;6.93;5.70;;;;;;;;;;6216763;23;20011;-91
2022/07/29 22:59:12;;;;;;;5.82;5.15;;;;;;;;;;6216454;23;20004;-85
2022/07/29 23:01:38;;;;;;;6.25;5.07;;;;;;;;;;6216763;23;20423;-90
2022/07/29 23:04:03;;;;;;;6.53;5.93;;;;;;;;;;6216750;23;20004;-94
2022/07/29 23:06:29;;;;;;;6.97;6.32;;;;;;;;;;6216505;23;19997;-92
2022/07/29 23:08:54;;;;;;;7.03;6.18;;;;;;;;;;6216366;23;20000;-90
2022/07/29 23:11:20;;;;;;;8.75;7.22;;;;;;;;;;6216772;23;20080;-86
2022/07/29 23:13:45;;;;;;;7.07;6.38;;;;;;;;;;6216422;23;20094;-89
2022/07/29 23:16:11;;;;;;;8.80;6.70;;;;;;;;;;6216506;23;20007;-86
2022/07/29 23:18:38;;;;;;;9.40;6.03;;;;;;;;;;6216572;23;20000;-83
2022/07/29 23:21:04;;;;;;;7.43;6.20;;;;;;;;;;6216975;23;20032;-89
2022/07/29 23:23:29;;;;;;;6.72;6.10;;;;;;;;;;6216643;23;20008;-93
2022/07/29 23:25:55;;;;;;;8.35;6.13;;;;;;;;;;6216489;22;20320;-93
2022/07/29 23:28:20;;;;;;;8.70;5.95;;;;;;;;;;6216763;23;20028;-93
2022/07/29 23:30:45;;;;;;;7.30;6.10;;;;;;;;;;6218376;23;20439;-90
2022/07/29 23:33:11;;;;;;;7.05;6.22;;;;;;;;;;6218497;23;20005;-94
2022/07/29 23:35:36;;;;;;;7.15;5.85;;;;;;;;;;6218719;23;20011;-91
2022/07/29 23:38:02;;;;;;;7.45;5.63;;;;;;;;;;6218392;23;20025;-90
2022/07/29 23:40:28;;;;;;;6.70;6.00;;;;;;;;;;6218944;23;20004;-93
2022/07/29 23:42:53;;;;;;;5.43;4.93;;;;;;;;;;6219049;23;20062;-90
2022/07/29 23:45:18;;;;;;;6.47;5.57;;;;;;;;;;6218835;23;20078;-91
2022/07/29 23:47:44;;;;;;;6.30;5.70;;;;;;;;;;6218415;23;20004;-91
2022/07/29 23:50:11;;;;;;;6.03;5.13;;;;;;;;;;6218406;23;19997;-91
2022/07/29 23:52:38;;;;;;;6.05;5.50;;;;;;;;;;6218566;23;20005;-89
2022/07/29 23:55:04;;;;;;;5.60;5.10;;;;;;;;;;6218371;23;20064;-89
2022/07/29 23:57:29;;;;;;;9.10;6.60;;;;;;;;;;6218507;23;20024;-90
2022/07/29 23:59:55;;;;;;;8.90;6.60;;;;;;;;;;6218506;23;20316;-91
